createdAt,value
2023-03-17T00:01:12.007Z,93652.16
2023-03-17T00:03:41.726Z,93649.56
2023-03-17T00:06:29.733Z,93644.16
2023-03-17T00:08:57.589Z,93651.38
2023-03-17T00:11:26.546Z,93648.19
2023-03-17T00:13:53.158Z,93645.25
2023-03-17T00:16:23.287Z,93640.63
2023-03-17T00:18:51.254Z,93630.63
2023-03-17T00:21:24.948Z,93636.13
2023-03-17T00:23:51.877Z,93637.47
2023-03-17T00:26:20.287Z,93636.00
2023-03-17T00:28:47.361Z,93635.94
2023-03-17T00:31:21.308Z,93639.56
2023-03-17T00:33:50.426Z,93637.22
2023-03-17T00:36:20.037Z,93638.22
2023-03-17T00:38:47.272Z,93632.16
2023-03-17T00:41:14.273Z,93625.38
2023-03-17T00:43:41.361Z,93617.75
2023-03-17T00:46:16.783Z,93620.16
2023-03-17T00:48:45.186Z,93610.06
2023-03-17T00:51:12.766Z,93603.13
2023-03-17T00:53:39.829Z,93592.56
2023-03-17T00:56:14.449Z,93592.38
2023-03-17T00:58:42.126Z,93587.69
2023-03-17T01:01:09.687Z,93582.94
2023-03-17T01:03:37.300Z,93580.34
2023-03-17T01:06:06.343Z,93591.56
2023-03-17T01:08:33.819Z,93592.88
2023-03-17T01:11:00.546Z,93590.44
2023-03-17T01:13:27.538Z,93597.69
2023-03-17T01:15:56.497Z,93603.34
2023-03-17T01:18:23.589Z,93606.47
2023-03-17T01:20:51.358Z,93599.81
2023-03-17T01:23:18.346Z,93596.91
2023-03-17T01:25:45.568Z,93594.03
2023-03-17T01:28:17.961Z,93588.41
2023-03-17T01:30:45.501Z,93593.13
2023-03-17T01:33:13.337Z,93578.97
2023-03-17T01:35:41.437Z,93569.75
2023-03-17T01:38:08.662Z,93566.03
2023-03-17T01:40:42.478Z,93566.03
2023-03-17T01:43:09.025Z,93567.13
2023-03-17T01:46:13.111Z,93559.97
2023-03-17T01:49:01.082Z,93548.88
2023-03-17T01:51:52.544Z,93549.25
2023-03-17T01:54:30.598Z,93554.31
2023-03-17T01:57:13.618Z,93555.34
2023-03-17T01:59:46.487Z,93563.25
2023-03-17T02:02:18.657Z,93572.78
2023-03-17T02:04:45.346Z,93560.50
2023-03-17T02:07:12.567Z,93553.13
2023-03-17T02:09:40.045Z,93559.31
2023-03-17T02:12:07.801Z,93549.56
2023-03-17T02:14:34.581Z,93547.50
2023-03-17T02:17:01.521Z,93546.75
2023-03-17T02:19:28.572Z,93551.69
2023-03-17T02:21:59.955Z,93549.63
2023-03-17T02:24:37.663Z,93551.50
2023-03-17T02:27:14.657Z,93557.38
2023-03-17T02:29:42.329Z,93546.34
2023-03-17T02:32:10.019Z,93545.41
2023-03-17T02:34:37.370Z,93544.41
2023-03-17T02:37:04.641Z,93544.47
2023-03-17T02:39:32.196Z,93535.53
2023-03-17T02:41:59.438Z,93535.78
2023-03-17T02:44:27.100Z,93531.16
2023-03-17T02:46:53.894Z,93538.59
2023-03-17T02:49:20.702Z,93539.44
2023-03-17T02:51:48.111Z,93540.69
2023-03-17T02:54:14.914Z,93542.44
2023-03-17T02:56:41.941Z,93551.91
2023-03-17T02:59:09.288Z,93539.22
2023-03-17T03:01:36.018Z,93541.00
2023-03-17T03:04:03.973Z,93540.66
2023-03-17T03:06:31.693Z,93550.91
2023-03-17T03:08:58.409Z,93552.97
2023-03-17T03:11:25.393Z,93546.16
2023-03-17T03:13:52.252Z,93546.56
2023-03-17T03:16:18.931Z,93552.09
2023-03-17T03:18:45.720Z,93549.59
2023-03-17T03:21:12.356Z,93542.84
2023-03-17T03:23:39.000Z,93534.84
2023-03-17T03:26:05.820Z,93543.13
2023-03-17T03:28:32.524Z,93547.06
2023-03-17T03:30:59.309Z,93545.53
2023-03-17T03:33:26.203Z,93545.63
2023-03-17T03:35:53.201Z,93539.97
2023-03-17T03:38:19.955Z,93538.09
2023-03-17T03:40:46.849Z,93537.19
2023-03-17T03:43:22.907Z,93534.13
2023-03-17T03:45:51.425Z,93541.84
2023-03-17T03:48:18.548Z,93540.38
2023-03-17T03:50:45.840Z,93541.13
2023-03-17T03:53:12.907Z,93528.13
2023-03-17T03:55:39.760Z,93534.53
2023-03-17T03:58:06.843Z,93538.72
2023-03-17T04:00:33.820Z,93545.25
2023-03-17T04:03:01.496Z,93544.38
2023-03-17T04:05:28.187Z,93544.53
2023-03-17T04:07:55.014Z,93538.47
2023-03-17T04:10:21.654Z,93533.00
2023-03-17T04:12:48.355Z,93545.91
2023-03-17T04:15:16.857Z,93530.59
2023-03-17T04:17:44.196Z,93527.47
2023-03-17T04:20:13.157Z,93525.28
2023-03-17T04:22:41.718Z,93527.56
2023-03-17T04:25:10.312Z,93531.13
2023-03-17T04:27:37.476Z,93523.94
2023-03-17T04:30:05.441Z,93514.56
2023-03-17T04:32:32.184Z,93528.72
2023-03-17T04:34:58.979Z,93530.13
2023-03-17T04:37:26.351Z,93533.13
2023-03-17T04:39:53.446Z,93524.31
2023-03-17T04:42:20.169Z,93524.47
2023-03-17T04:44:47.016Z,93522.97
2023-03-17T04:47:13.630Z,93520.91
2023-03-17T04:49:40.494Z,93527.44
2023-03-17T04:52:07.159Z,93530.13
2023-03-17T04:54:33.790Z,93521.34
2023-03-17T04:57:00.941Z,93521.78
2023-03-17T04:59:27.587Z,93513.34
2023-03-17T05:01:54.261Z,93511.91
2023-03-17T05:04:31.334Z,93509.38
2023-03-17T05:06:58.670Z,93509.84
2023-03-17T05:09:26.838Z,93513.53
2023-03-17T05:11:53.567Z,93516.16
2023-03-17T05:14:20.814Z,93512.28
2023-03-17T05:16:48.489Z,93512.34
2023-03-17T05:19:16.487Z,93518.16
2023-03-17T05:21:43.702Z,93520.63
2023-03-17T05:24:10.426Z,93521.88
2023-03-17T05:26:37.318Z,93517.84
2023-03-17T05:29:04.603Z,93517.72
2023-03-17T05:31:31.760Z,93516.44
2023-03-17T05:33:58.798Z,93520.38
2023-03-17T05:36:25.613Z,93523.75
2023-03-17T05:38:52.444Z,93526.22
2023-03-17T05:41:19.421Z,93520.22
2023-03-17T05:43:46.784Z,93526.47
2023-03-17T05:46:13.818Z,93528.66
2023-03-17T05:48:40.790Z,93530.78
2023-03-17T05:51:07.456Z,93523.19
2023-03-17T05:53:35.936Z,93521.84
2023-03-17T05:56:03.060Z,93523.56
2023-03-17T05:58:29.918Z,93527.88
2023-03-17T06:00:56.939Z,93523.75
2023-03-17T06:03:23.631Z,93533.25
2023-03-17T06:05:50.354Z,93522.56
2023-03-17T06:08:17.062Z,93528.88
2023-03-17T06:10:43.987Z,93524.16
2023-03-17T06:13:11.670Z,93523.72
2023-03-17T06:15:38.513Z,93524.16
2023-03-17T06:18:05.670Z,93528.53
2023-03-17T06:20:33.284Z,93528.88
2023-03-17T06:23:04.905Z,93524.47
2023-03-17T06:25:33.694Z,93532.25
2023-03-17T06:28:02.816Z,93533.19
2023-03-17T06:30:31.405Z,93523.56
2023-03-17T06:32:58.569Z,93528.22
2023-03-17T06:35:25.356Z,93528.06
2023-03-17T06:37:52.297Z,93532.84
2023-03-17T06:40:18.962Z,93532.88
2023-03-17T06:42:45.705Z,93527.44
2023-03-17T06:45:13.104Z,93532.09
2023-03-17T06:47:39.892Z,93533.09
2023-03-17T06:50:12.284Z,93526.88
2023-03-17T06:52:39.778Z,93536.53
2023-03-17T06:55:07.187Z,93533.16
2023-03-17T06:57:34.348Z,93530.41
2023-03-17T07:00:01.216Z,93530.91
2023-03-17T07:02:28.061Z,93537.41
2023-03-17T07:04:54.891Z,93530.91
2023-03-17T07:07:21.641Z,93533.44
2023-03-17T07:09:48.276Z,93532.75
2023-03-17T07:12:15.721Z,93530.63
2023-03-17T07:14:42.384Z,93533.72
2023-03-17T07:17:14.544Z,93531.94
2023-03-17T07:19:42.316Z,93530.81
2023-03-17T07:22:11.898Z,93532.25
2023-03-17T07:24:39.596Z,93519.94
2023-03-17T07:27:06.428Z,93521.91
2023-03-17T07:29:34.054Z,93521.88
2023-03-17T07:32:02.073Z,93525.75
2023-03-17T07:34:28.983Z,93526.47
2023-03-17T07:36:55.621Z,93522.72
2023-03-17T07:39:22.601Z,93519.03
2023-03-17T07:41:55.024Z,93517.75
2023-03-17T07:44:22.709Z,93514.53
2023-03-17T07:46:50.143Z,93520.78
2023-03-17T07:49:18.210Z,93516.38
2023-03-17T07:51:47.563Z,93522.47
2023-03-17T07:54:15.870Z,93525.94
2023-03-17T07:56:42.613Z,93519.34
2023-03-17T07:59:10.868Z,93516.38
2023-03-17T08:01:38.386Z,93510.25
2023-03-17T08:04:07.395Z,93513.09
2023-03-17T08:06:34.217Z,93506.53
2023-03-17T08:09:01.025Z,93502.47
2023-03-17T08:11:29.450Z,93517.72
2023-03-17T08:13:56.365Z,93510.28
2023-03-17T08:16:23.186Z,93509.50
2023-03-17T08:18:49.975Z,93509.97
2023-03-17T08:21:16.804Z,93502.34
2023-03-17T08:23:43.861Z,93498.78
2023-03-17T08:26:10.673Z,93503.25
2023-03-17T08:28:37.532Z,93494.53
2023-03-17T08:31:22.811Z,93499.09
2023-03-17T08:33:52.700Z,93487.16
2023-03-17T08:36:20.963Z,93495.09
2023-03-17T08:38:48.378Z,93489.13
2023-03-17T08:41:18.292Z,93491.91
2023-03-17T08:43:46.333Z,93495.78
2023-03-17T08:46:14.713Z,93494.16
2023-03-17T08:48:41.443Z,93479.44
2023-03-17T08:51:08.877Z,93474.22
2023-03-17T08:53:36.192Z,93477.81
2023-03-17T08:56:04.997Z,93470.91
2023-03-17T08:58:31.594Z,93467.59
2023-03-17T09:01:00.503Z,93474.75
2023-03-17T09:03:28.124Z,93461.97
2023-03-17T09:05:55.105Z,93468.06
2023-03-17T09:08:21.989Z,93462.00
2023-03-17T09:10:49.617Z,93469.38
2023-03-17T09:13:16.332Z,93453.78
2023-03-17T09:15:43.092Z,93464.41
2023-03-17T09:18:10.512Z,93454.69
2023-03-17T09:20:37.243Z,93460.22
2023-03-17T09:23:08.790Z,93463.75
2023-03-17T09:25:37.469Z,93455.19
2023-03-17T09:28:05.181Z,93449.66
2023-03-17T09:30:32.840Z,93458.25
2023-03-17T09:33:00.680Z,93451.94
2023-03-17T09:35:28.294Z,93448.66
2023-03-17T09:37:55.638Z,93455.53
2023-03-17T09:40:31.672Z,93451.34
2023-03-17T09:43:19.408Z,93452.09
2023-03-17T09:45:46.251Z,93457.59
2023-03-17T09:48:24.281Z,93442.97
2023-03-17T09:51:07.973Z,93455.31
2023-03-17T09:53:36.281Z,93443.81
2023-03-17T09:56:11.666Z,93436.44
2023-03-17T09:58:41.720Z,93437.59
2023-03-17T10:01:10.398Z,93432.16
2023-03-17T10:03:37.488Z,93446.19
2023-03-17T10:06:25.149Z,93432.97
2023-03-17T10:09:00.609Z,93430.03
2023-03-17T10:11:38.461Z,93438.84
2023-03-17T10:14:24.709Z,93437.50
2023-03-17T10:17:03.604Z,93432.09
2023-03-17T10:19:35.243Z,93440.44
2023-03-17T10:22:15.930Z,93432.28
2023-03-17T10:24:48.904Z,93433.91
2023-03-17T10:27:17.288Z,93435.16
2023-03-17T10:29:45.905Z,93436.13
2023-03-17T10:32:14.693Z,93433.28
2023-03-17T10:34:42.357Z,93432.16
2023-03-17T10:37:17.924Z,93430.00
2023-03-17T10:39:47.443Z,93432.66
2023-03-17T10:42:21.715Z,93434.59
2023-03-17T10:45:29.782Z,93431.78
2023-03-17T10:47:58.450Z,93425.38
2023-03-17T10:50:34.326Z,93423.97
2023-03-17T10:53:10.880Z,93435.25
2023-03-17T10:55:37.455Z,93420.66
2023-03-17T10:58:07.861Z,93421.63
2023-03-17T11:00:38.455Z,93418.03
2023-03-17T11:03:19.326Z,93409.50
2023-03-17T11:06:13.621Z,93415.84
2023-03-17T11:08:42.231Z,93415.91
2023-03-17T11:11:23.125Z,93397.59
2023-03-17T11:13:49.767Z,93403.97
2023-03-17T11:16:24.166Z,93401.97
2023-03-17T11:18:57.424Z,93398.84
2023-03-17T11:21:30.902Z,93395.19
2023-03-17T11:24:09.702Z,93396.06
2023-03-17T11:26:53.558Z,93400.41
2023-03-17T11:29:34.877Z,93394.47
2023-03-17T11:32:19.736Z,93389.59
2023-03-17T11:35:10.550Z,93377.59
2023-03-17T11:38:15.757Z,93383.22
2023-03-17T11:40:57.653Z,93379.34
2023-03-17T11:43:55.417Z,93374.25
2023-03-17T11:46:36.169Z,93377.75
2023-03-17T11:49:14.657Z,93383.13
2023-03-17T11:52:12.228Z,93384.56
2023-03-17T11:54:54.377Z,93376.13
2023-03-17T11:57:30.107Z,93380.47
2023-03-17T12:00:32.982Z,93378.81
2023-03-17T12:03:05.648Z,93377.19
2023-03-17T12:05:33.924Z,93377.97
2023-03-17T12:08:11.968Z,93382.38
2023-03-17T12:10:52.204Z,93370.59
2023-03-17T12:13:25.064Z,93371.09
2023-03-17T12:15:57.138Z,93376.84
2023-03-17T12:18:32.847Z,93369.22
2023-03-17T12:21:21.004Z,93369.78
2023-03-17T12:23:50.249Z,93370.59
2023-03-17T12:26:28.268Z,93367.50
2023-03-17T12:29:16.654Z,93362.13
2023-03-17T12:31:58.280Z,93365.34
2023-03-17T12:34:51.859Z,93358.44
2023-03-17T12:37:19.430Z,93360.75
2023-03-17T12:39:55.566Z,93352.91
2023-03-17T12:42:37.637Z,93354.34
2023-03-17T12:45:26.303Z,93352.16
2023-03-17T12:48:02.815Z,93347.16
2023-03-17T12:50:50.741Z,93352.31
2023-03-17T12:53:44.889Z,93344.84
2023-03-17T12:56:21.997Z,93344.75
2023-03-17T12:58:51.151Z,93342.72
2023-03-17T13:01:32.805Z,93327.03
2023-03-17T13:04:26.456Z,93335.97
2023-03-17T13:06:57.435Z,93328.75
2023-03-17T13:09:46.943Z,93322.06
2023-03-17T13:12:42.092Z,93324.91
2023-03-17T13:15:28.184Z,93326.25
2023-03-17T13:18:15.356Z,93321.88
2023-03-17T13:21:13.767Z,93313.88
2023-03-17T13:23:54.993Z,93320.50
2023-03-17T13:26:55.063Z,93317.44
2023-03-17T13:29:34.108Z,93317.34
2023-03-17T13:32:15.784Z,93314.72
2023-03-17T13:34:55.659Z,93323.66
2023-03-17T13:37:31.239Z,93310.72
2023-03-17T13:40:13.512Z,93315.94
2023-03-17T13:43:13.861Z,93312.22
2023-03-17T13:45:43.907Z,93318.78
2023-03-17T13:48:36.560Z,93316.38
2023-03-17T13:51:17.298Z,93313.88
2023-03-17T13:54:08.262Z,93313.00
2023-03-17T13:56:37.458Z,93328.38
2023-03-17T13:59:15.089Z,93323.25
2023-03-17T14:01:49.054Z,93327.31
2023-03-17T14:04:31.124Z,93326.00
2023-03-17T14:07:04.705Z,93327.00
2023-03-17T14:09:42.333Z,93326.25
2023-03-17T14:12:19.627Z,93332.97
2023-03-17T14:15:17.349Z,93320.69
2023-03-17T14:17:50.259Z,93327.06
2023-03-17T14:20:27.755Z,93323.31
2023-03-17T14:23:01.334Z,93320.41
2023-03-17T14:25:34.975Z,93336.19
2023-03-17T14:28:05.921Z,93331.84
2023-03-17T14:30:34.800Z,93334.91
2023-03-17T14:33:29.955Z,93331.69
2023-03-17T14:36:00.095Z,93336.09
2023-03-17T14:38:32.516Z,93328.50
2023-03-17T14:41:01.189Z,93322.56
2023-03-17T14:43:27.888Z,93323.63
2023-03-17T14:46:04.085Z,93325.66
2023-03-17T14:48:40.335Z,93319.97
2023-03-17T14:51:30.493Z,93315.41
2023-03-17T14:54:01.150Z,93315.09
2023-03-17T14:56:40.975Z,93316.38
2023-03-17T14:59:56.369Z,93305.94
2023-03-17T15:02:24.534Z,93303.72
2023-03-17T15:05:06.642Z,93311.75
2023-03-17T15:07:39.852Z,93306.81
2023-03-17T15:10:15.716Z,93311.91
2023-03-17T15:12:43.232Z,93313.94
2023-03-17T15:15:27.450Z,93311.75
2023-03-17T15:17:58.832Z,93303.31
2023-03-17T15:20:25.911Z,93300.84
2023-03-17T15:22:57.122Z,93300.84
2023-03-17T15:25:37.507Z,93290.56
2023-03-17T15:28:16.043Z,93293.81
2023-03-17T15:30:48.693Z,93290.25
2023-03-17T15:33:32.174Z,93288.56
2023-03-17T15:36:01.951Z,93285.03
2023-03-17T15:38:29.435Z,93280.16
2023-03-17T15:40:56.350Z,93276.47
2023-03-17T15:43:23.568Z,93269.25
2023-03-17T15:46:08.715Z,93268.78
2023-03-17T15:48:36.667Z,93274.59
2023-03-17T15:51:05.269Z,93267.84
2023-03-17T15:53:32.224Z,93272.31
2023-03-17T15:55:59.164Z,93272.31
2023-03-17T15:58:26.138Z,93268.16
2023-03-17T16:00:57.037Z,93260.03
2023-03-17T16:03:33.303Z,93264.00
2023-03-17T16:06:01.852Z,93262.19
2023-03-17T16:08:28.886Z,93261.69
2023-03-17T16:10:58.775Z,93252.47
2023-03-17T16:13:25.434Z,93251.09
2023-03-17T16:15:57.623Z,93258.63
2023-03-17T16:18:32.869Z,93252.63
2023-03-17T16:21:00.880Z,93263.56
2023-03-17T16:23:31.666Z,93264.31
2023-03-17T16:26:11.728Z,93272.44
2023-03-17T16:28:41.390Z,93280.78
2023-03-17T16:31:34.502Z,93284.25
2023-03-17T16:34:01.539Z,93289.59
2023-03-17T16:36:28.241Z,93287.28
2023-03-17T16:38:54.952Z,93289.88
2023-03-17T16:41:24.443Z,93294.53
2023-03-17T16:43:58.926Z,93297.03
2023-03-17T16:46:26.546Z,93294.13
2023-03-17T16:48:53.590Z,93304.16
2023-03-17T16:51:20.371Z,93296.91
2023-03-17T16:53:47.063Z,93297.78
2023-03-17T16:56:17.700Z,93308.75
2023-03-17T16:58:45.602Z,93314.84
2023-03-17T17:01:21.918Z,93313.19
2023-03-17T17:03:48.982Z,93315.53
2023-03-17T17:06:16.229Z,93318.91
2023-03-17T17:08:43.916Z,93326.78
2023-03-17T17:11:13.103Z,93326.13
2023-03-17T17:13:44.527Z,93331.94
2023-03-17T17:16:17.457Z,93323.81
2023-03-17T17:18:44.166Z,93330.56
2023-03-17T17:21:11.094Z,93334.31
2023-03-17T17:23:37.812Z,93331.91
2023-03-17T17:26:04.542Z,93338.72
2023-03-17T17:28:31.778Z,93335.44
2023-03-17T17:30:59.700Z,93341.28
2023-03-17T17:33:27.107Z,93338.09
2023-03-17T17:35:53.858Z,93342.03
2023-03-17T17:38:29.027Z,93337.84
2023-03-17T17:40:58.200Z,93337.47
2023-03-17T17:43:25.431Z,93349.41
2023-03-17T17:45:52.476Z,93344.44
2023-03-17T17:48:22.630Z,93345.41
2023-03-17T17:50:51.256Z,93343.09
2023-03-17T17:53:18.847Z,93344.97
2023-03-17T17:55:47.722Z,93352.53
2023-03-17T17:58:24.099Z,93345.31
2023-03-17T18:00:51.596Z,93362.00
2023-03-17T18:03:22.239Z,93353.25
2023-03-17T18:05:49.026Z,93358.94
2023-03-17T18:08:15.908Z,93352.00
2023-03-17T18:10:42.755Z,93355.69
2023-03-17T18:13:09.589Z,93353.91
2023-03-17T18:15:36.282Z,93349.47
2023-03-17T18:18:02.931Z,93364.03
2023-03-17T18:20:30.515Z,93364.53
2023-03-17T18:22:57.779Z,93362.06
2023-03-17T18:25:28.033Z,93374.78
2023-03-17T18:27:55.063Z,93386.25
2023-03-17T18:30:26.099Z,93389.50
2023-03-17T18:33:00.537Z,93393.88
2023-03-17T18:35:29.215Z,93398.81
2023-03-17T18:37:57.660Z,93392.63
2023-03-17T18:40:25.683Z,93398.44
2023-03-17T18:42:52.383Z,93399.66
2023-03-17T18:45:19.424Z,93396.91
2023-03-17T18:47:46.209Z,93408.38
2023-03-17T18:50:15.589Z,93395.97
2023-03-17T18:52:43.834Z,93396.25
2023-03-17T18:55:12.336Z,93394.34
2023-03-17T18:57:39.542Z,93403.41
2023-03-17T19:00:09.762Z,93399.97
2023-03-17T19:02:37.933Z,93399.28
2023-03-17T19:05:06.186Z,93404.41
2023-03-17T19:07:33.373Z,93399.34
2023-03-17T19:10:00.320Z,93387.31
2023-03-17T19:12:27.011Z,93386.47
2023-03-17T19:14:53.694Z,93394.69
2023-03-17T19:17:20.336Z,93388.66
2023-03-17T19:19:47.168Z,93404.19
2023-03-17T19:22:14.139Z,93398.44
2023-03-17T19:24:41.152Z,93410.50
2023-03-17T19:27:08.009Z,93411.66
2023-03-17T19:29:34.693Z,93406.25
2023-03-17T19:32:02.338Z,93408.63
2023-03-17T19:34:29.160Z,93405.94
2023-03-17T19:36:56.064Z,93409.59
2023-03-17T19:39:22.997Z,93408.47
2023-03-17T19:41:53.221Z,93417.03
2023-03-17T19:44:19.977Z,93405.38
2023-03-17T19:46:46.641Z,93407.06
2023-03-17T19:49:13.600Z,93404.44
2023-03-17T19:51:41.881Z,93410.81
2023-03-17T19:54:09.990Z,93412.53
2023-03-17T19:56:38.375Z,93416.09
2023-03-17T19:59:06.297Z,93418.53
2023-03-17T20:01:33.136Z,93415.09
2023-03-17T20:03:59.850Z,93417.91
2023-03-17T20:06:27.241Z,93419.59
2023-03-17T20:08:54.189Z,93427.25
2023-03-17T20:11:21.085Z,93425.94
2023-03-17T20:13:47.771Z,93425.94
2023-03-17T20:16:14.512Z,93443.84
2023-03-17T20:18:41.287Z,93439.34
2023-03-17T20:21:12.711Z,93438.97
2023-03-17T20:23:39.496Z,93440.56
2023-03-17T20:26:06.918Z,93440.38
2023-03-17T20:28:33.971Z,93441.81
2023-03-17T20:31:02.629Z,93444.56
2023-03-17T20:33:29.479Z,93454.94
2023-03-17T20:35:56.569Z,93449.81
2023-03-17T20:38:23.626Z,93458.44
2023-03-17T20:40:50.300Z,93445.09
2023-03-17T20:43:17.268Z,93445.94
2023-03-17T20:45:44.060Z,93457.81
2023-03-17T20:48:11.275Z,93458.16
2023-03-17T20:50:39.233Z,93455.38
2023-03-17T20:53:06.072Z,93457.72
2023-03-17T20:55:32.875Z,93452.28
2023-03-17T20:57:59.847Z,93459.28
2023-03-17T21:00:30.142Z,93459.25
2023-03-17T21:02:57.178Z,93461.22
2023-03-17T21:05:26.529Z,93461.22
2023-03-17T21:07:53.470Z,93463.69
2023-03-17T21:10:20.626Z,93462.66
2023-03-17T21:12:48.139Z,93454.75
2023-03-17T21:15:15.645Z,93451.75
2023-03-17T21:17:43.050Z,93456.84
2023-03-17T21:20:12.402Z,93450.31
2023-03-17T21:22:39.995Z,93462.50
2023-03-17T21:25:08.773Z,93461.78
2023-03-17T21:27:37.694Z,93459.22
2023-03-17T21:30:12.003Z,93463.75
2023-03-17T21:32:40.345Z,93469.16
2023-03-17T21:35:08.561Z,93468.72
2023-03-17T21:37:35.540Z,93473.41
2023-03-17T21:40:02.255Z,93480.09
2023-03-17T21:42:29.096Z,93480.91
2023-03-17T21:44:55.799Z,93478.63
2023-03-17T21:47:22.505Z,93473.97
2023-03-17T21:49:49.173Z,93477.06
2023-03-17T21:52:15.926Z,93470.66
2023-03-17T21:54:42.657Z,93472.97
2023-03-17T21:57:11.757Z,93478.84
2023-03-17T21:59:38.688Z,93474.50
2023-03-17T22:02:05.914Z,93487.13
2023-03-17T22:04:32.660Z,93485.22
2023-03-17T22:06:59.426Z,93485.25
2023-03-17T22:09:26.241Z,93482.72
2023-03-17T22:11:53.078Z,93486.91
2023-03-17T22:14:20.714Z,93493.50
2023-03-17T22:16:49.337Z,93494.66
2023-03-17T22:19:18.204Z,93493.09
2023-03-17T22:21:45.952Z,93496.25
2023-03-17T22:24:12.638Z,93497.38
2023-03-17T22:26:39.399Z,93495.84
2023-03-17T22:29:06.176Z,93493.16
2023-03-17T22:31:34.729Z,93503.75
2023-03-17T22:34:02.252Z,93510.41
2023-03-17T22:36:29.766Z,93506.94
2023-03-17T22:38:57.145Z,93511.56
2023-03-17T22:41:27.014Z,93518.59
2023-03-17T22:43:54.208Z,93511.16
2023-03-17T22:46:21.705Z,93517.38
2023-03-17T22:48:49.130Z,93525.91
2023-03-17T22:51:18.428Z,93519.25
2023-03-17T22:53:45.582Z,93527.03
2023-03-17T22:56:14.046Z,93530.63
2023-03-17T22:58:41.052Z,93527.50
2023-03-17T23:01:09.015Z,93525.25
2023-03-17T23:03:36.025Z,93520.53
2023-03-17T23:06:04.362Z,93529.50
2023-03-17T23:08:35.222Z,93527.91
2023-03-17T23:11:06.122Z,93528.28
2023-03-17T23:13:33.167Z,93529.88
2023-03-17T23:15:59.871Z,93534.97
2023-03-17T23:18:26.627Z,93541.16
2023-03-17T23:20:53.466Z,93528.31
2023-03-17T23:23:20.119Z,93532.59
2023-03-17T23:25:47.048Z,93531.09
2023-03-17T23:28:15.508Z,93536.88
2023-03-17T23:30:43.796Z,93540.41
2023-03-17T23:33:10.611Z,93540.78
2023-03-17T23:35:37.979Z,93544.31
2023-03-17T23:38:04.681Z,93538.47
2023-03-17T23:40:32.739Z,93544.66
2023-03-17T23:42:59.873Z,93549.75
2023-03-17T23:45:26.616Z,93547.38
2023-03-17T23:47:55.217Z,93548.94
2023-03-17T23:50:21.899Z,93553.22
2023-03-17T23:52:49.334Z,93544.25
2023-03-17T23:55:16.773Z,93548.94
2023-03-17T23:57:44.246Z,93547.78
